sensor_id;sensor_type;location;lat;lon;timestamp;pressure;altitude;pressure_sealevel;temperature;humidity
78313;BME280;67568;47.438;21.408;2024-03-25T00:02:12;99453.00;;;4.97;72.50
78313;BME280;67568;47.438;21.408;2024-03-25T00:04:38;99454.38;;;5.00;72.26
78313;BME280;67568;47.438;21.408;2024-03-25T00:07:04;99453.59;;;4.94;72.20
78313;BME280;67568;47.438;21.408;2024-03-25T00:09:30;99453.69;;;4.84;72.69
78313;BME280;67568;47.438;21.408;2024-03-25T00:11:55;99456.63;;;4.93;72.60
78313;BME280;67568;47.438;21.408;2024-03-25T00:14:21;99449.22;;;4.93;72.88
78313;BME280;67568;47.438;21.408;2024-03-25T00:16:47;99448.91;;;4.95;72.31
78313;BME280;67568;47.438;21.408;2024-03-25T00:19:13;99444.34;;;4.85;72.87
78313;BME280;67568;47.438;21.408;2024-03-25T00:21:39;99444.63;;;4.84;73.04
78313;BME280;67568;47.438;21.408;2024-03-25T00:24:05;99446.88;;;4.77;74.04
78313;BME280;67568;47.438;21.408;2024-03-25T00:26:31;99441.72;;;4.70;73.71
78313;BME280;67568;47.438;21.408;2024-03-25T00:28:57;99438.38;;;4.78;72.69
78313;BME280;67568;47.438;21.408;2024-03-25T00:31:23;99428.28;;;4.68;72.88
78313;BME280;67568;47.438;21.408;2024-03-25T00:33:48;99435.97;;;4.66;73.58
78313;BME280;67568;47.438;21.408;2024-03-25T00:36:14;99428.31;;;4.63;73.29
78313;BME280;67568;47.438;21.408;2024-03-25T00:38:40;99439.94;;;4.50;73.85
78313;BME280;67568;47.438;21.408;2024-03-25T00:41:05;99431.75;;;4.45;74.06
78313;BME280;67568;47.438;21.408;2024-03-25T00:43:31;99427.84;;;4.51;73.96
78313;BME280;67568;47.438;21.408;2024-03-25T00:45:57;99430.06;;;4.49;73.30
78313;BME280;67568;47.438;21.408;2024-03-25T00:48:23;99429.81;;;4.45;73.51
78313;BME280;67568;47.438;21.408;2024-03-25T00:50:49;99428.47;;;4.38;74.28
78313;BME280;67568;47.438;21.408;2024-03-25T00:53:15;99435.81;;;4.53;73.60
78313;BME280;67568;47.438;21.408;2024-03-25T00:55:40;99431.44;;;4.46;73.79
78313;BME280;67568;47.438;21.408;2024-03-25T00:58:06;99428.81;;;4.31;74.45
78313;BME280;67568;47.438;21.408;2024-03-25T01:00:32;99431.00;;;4.29;74.53
78313;BME280;67568;47.438;21.408;2024-03-25T01:02:57;99436.19;;;4.36;73.71
78313;BME280;67568;47.438;21.408;2024-03-25T01:05:23;99429.41;;;4.23;73.90
78313;BME280;67568;47.438;21.408;2024-03-25T01:07:49;99433.50;;;4.25;73.95
78313;BME280;67568;47.438;21.408;2024-03-25T01:10:15;99432.09;;;4.33;73.48
78313;BME280;67568;47.438;21.408;2024-03-25T01:12:42;99417.41;;;4.09;74.50
78313;BME280;67568;47.438;21.408;2024-03-25T01:15:08;99420.38;;;4.22;73.57
78313;BME280;67568;47.438;21.408;2024-03-25T01:17:33;99425.09;;;4.06;74.52
78313;BME280;67568;47.438;21.408;2024-03-25T01:19:59;99427.22;;;4.25;73.51
78313;BME280;67568;47.438;21.408;2024-03-25T01:22:25;99423.44;;;4.16;73.58
78313;BME280;67568;47.438;21.408;2024-03-25T01:24:50;99419.69;;;3.96;74.68
78313;BME280;67568;47.438;21.408;2024-03-25T01:27:16;99425.44;;;3.90;74.80
78313;BME280;67568;47.438;21.408;2024-03-25T01:29:42;99422.44;;;3.96;74.49
78313;BME280;67568;47.438;21.408;2024-03-25T01:32:07;99419.03;;;4.15;73.86
78313;BME280;67568;47.438;21.408;2024-03-25T01:34:33;99422.34;;;4.06;73.86
78313;BME280;67568;47.438;21.408;2024-03-25T01:36:59;99419.91;;;4.05;74.01
78313;BME280;67568;47.438;21.408;2024-03-25T01:39:25;99419.94;;;4.00;74.35
78313;BME280;67568;47.438;21.408;2024-03-25T01:41:51;99424.63;;;3.94;74.98
78313;BME280;67568;47.438;21.408;2024-03-25T01:44:16;99431.47;;;3.92;74.90
78313;BME280;67568;47.438;21.408;2024-03-25T01:46:42;99419.69;;;3.91;74.96
78313;BME280;67568;47.438;21.408;2024-03-25T01:49:08;99427.09;;;3.96;74.68
78313;BME280;67568;47.438;21.408;2024-03-25T01:51:34;99420.19;;;3.98;74.43
78313;BME280;67568;47.438;21.408;2024-03-25T01:54:01;99416.63;;;4.03;74.23
78313;BME280;67568;47.438;21.408;2024-03-25T01:56:31;99413.63;;;3.99;74.75
78313;BME280;67568;47.438;21.408;2024-03-25T01:58:59;99410.34;;;3.97;75.03
78313;BME280;67568;47.438;21.408;2024-03-25T02:01:24;99413.09;;;3.97;74.96
78313;BME280;67568;47.438;21.408;2024-03-25T02:03:50;99408.19;;;3.94;75.39
78313;BME280;67568;47.438;21.408;2024-03-25T02:06:18;99415.34;;;3.85;76.57
78313;BME280;67568;47.438;21.408;2024-03-25T02:08:46;99409.25;;;3.98;75.50
78313;BME280;67568;47.438;21.408;2024-03-25T02:11:13;99416.47;;;3.79;77.58
78313;BME280;67568;47.438;21.408;2024-03-25T02:13:39;99408.50;;;3.88;76.57
78313;BME280;67568;47.438;21.408;2024-03-25T02:16:05;99404.97;;;3.77;77.69
78313;BME280;67568;47.438;21.408;2024-03-25T02:18:31;99419.13;;;3.94;77.04
78313;BME280;67568;47.438;21.408;2024-03-25T02:20:58;99406.78;;;4.02;76.16
78313;BME280;67568;47.438;21.408;2024-03-25T02:23:24;99402.44;;;3.91;76.14
78313;BME280;67568;47.438;21.408;2024-03-25T02:25:51;99400.03;;;3.79;77.61
78313;BME280;67568;47.438;21.408;2024-03-25T02:28:17;99398.94;;;3.75;77.70
78313;BME280;67568;47.438;21.408;2024-03-25T02:30:43;99389.91;;;3.79;77.44
78313;BME280;67568;47.438;21.408;2024-03-25T02:33:09;99399.97;;;3.89;77.08
78313;BME280;67568;47.438;21.408;2024-03-25T02:35:35;99398.91;;;3.85;77.01
78313;BME280;67568;47.438;21.408;2024-03-25T02:38:02;99395.84;;;3.92;76.92
78313;BME280;67568;47.438;21.408;2024-03-25T02:40:27;99401.63;;;3.90;77.18
78313;BME280;67568;47.438;21.408;2024-03-25T02:42:57;99404.06;;;3.92;77.13
78313;BME280;67568;47.438;21.408;2024-03-25T02:45:22;99407.69;;;3.82;77.26
78313;BME280;67568;47.438;21.408;2024-03-25T02:47:50;99401.91;;;3.89;77.04
78313;BME280;67568;47.438;21.408;2024-03-25T02:50:15;99402.19;;;3.87;77.19
78313;BME280;67568;47.438;21.408;2024-03-25T02:52:41;99403.84;;;3.78;77.87
78313;BME280;67568;47.438;21.408;2024-03-25T02:55:07;99399.97;;;3.89;77.50
78313;BME280;67568;47.438;21.408;2024-03-25T02:57:32;99401.63;;;3.90;77.64
78313;BME280;67568;47.438;21.408;2024-03-25T02:59:58;99403.81;;;3.93;77.41
78313;BME280;67568;47.438;21.408;2024-03-25T03:02:24;99403.84;;;3.78;77.45
78313;BME280;67568;47.438;21.408;2024-03-25T03:04:50;99395.16;;;3.66;78.87
78313;BME280;67568;47.438;21.408;2024-03-25T03:07:15;99394.84;;;3.72;78.34
78313;BME280;67568;47.438;21.408;2024-03-25T03:09:42;99398.94;;;3.75;78.03
78313;BME280;67568;47.438;21.408;2024-03-25T03:12:08;99384.19;;;3.66;79.11
78313;BME280;67568;47.438;21.408;2024-03-25T03:14:34;99410.78;;;3.60;79.69
78313;BME280;67568;47.438;21.408;2024-03-25T03:16:59;99408.03;;;3.70;79.03
78313;BME280;67568;47.438;21.408;2024-03-25T03:19:28;99410.47;;;3.72;78.93
78313;BME280;67568;47.438;21.408;2024-03-25T03:21:54;99407.22;;;3.59;79.67
78313;BME280;67568;47.438;21.408;2024-03-25T03:24:20;99414.09;;;3.47;80.15
78313;BME280;67568;47.438;21.408;2024-03-25T03:26:45;99420.13;;;3.54;79.76
78313;BME280;67568;47.438;21.408;2024-03-25T03:29:11;99424.78;;;3.53;80.44
78313;BME280;67568;47.438;21.408;2024-03-25T03:31:40;99429.72;;;3.56;80.41
78313;BME280;67568;47.438;21.408;2024-03-25T03:34:06;99426.97;;;3.62;79.73
78313;BME280;67568;47.438;21.408;2024-03-25T03:36:32;99417.91;;;3.61;79.65
78313;BME280;67568;47.438;21.408;2024-03-25T03:38:57;99433.81;;;3.59;80.35
78313;BME280;67568;47.438;21.408;2024-03-25T03:41:23;99423.69;;;3.49;80.74
78313;BME280;67568;47.438;21.408;2024-03-25T03:43:49;99424.22;;;3.56;80.14
78313;BME280;67568;47.438;21.408;2024-03-25T03:46:14;99424.22;;;3.62;79.90
78313;BME280;67568;47.438;21.408;2024-03-25T03:48:40;99427.53;;;3.43;81.37
78313;BME280;67568;47.438;21.408;2024-03-25T03:51:06;99431.06;;;3.59;80.15
78313;BME280;67568;47.438;21.408;2024-03-25T03:53:33;99429.13;;;3.65;80.17
78313;BME280;67568;47.438;21.408;2024-03-25T03:56:00;99428.59;;;3.52;80.97
78313;BME280;67568;47.438;21.408;2024-03-25T03:58:27;99426.09;;;3.61;80.61
78313;BME280;67568;47.438;21.408;2024-03-25T04:00:54;99436.25;;;3.60;80.12
78313;BME280;67568;47.438;21.408;2024-03-25T04:03:20;99427.78;;;3.52;80.96
78313;BME280;67568;47.438;21.408;2024-03-25T04:05:46;99428.91;;;3.41;81.06
78313;BME280;67568;47.438;21.408;2024-03-25T04:08:12;99430.59;;;3.31;81.86
78313;BME280;67568;47.438;21.408;2024-03-25T04:10:38;99437.66;;;3.48;80.93
78313;BME280;67568;47.438;21.408;2024-03-25T04:13:04;99435.50;;;3.45;81.56
78313;BME280;67568;47.438;21.408;2024-03-25T04:15:37;99433.03;;;3.43;81.40
78313;BME280;67568;47.438;21.408;2024-03-25T04:18:04;99435.47;;;3.50;81.16
78313;BME280;67568;47.438;21.408;2024-03-25T04:20:36;99442.84;;;3.54;81.39
78313;BME280;67568;47.438;21.408;2024-03-25T04:23:02;99444.78;;;3.49;81.12
78313;BME280;67568;47.438;21.408;2024-03-25T04:25:27;99442.59;;;3.41;81.74
78313;BME280;67568;47.438;21.408;2024-03-25T04:27:53;99442.03;;;3.49;81.75
78313;BME280;67568;47.438;21.408;2024-03-25T04:30:19;99446.16;;;3.51;81.61
78313;BME280;67568;47.438;21.408;2024-03-25T04:32:45;99449.69;;;3.52;81.64
78313;BME280;67568;47.438;21.408;2024-03-25T04:35:10;99439.31;;;3.49;81.53
78313;BME280;67568;47.438;21.408;2024-03-25T04:37:36;99443.38;;;3.62;80.92
78313;BME280;67568;47.438;21.408;2024-03-25T04:40:02;99444.72;;;3.64;80.88
78313;BME280;67568;47.438;21.408;2024-03-25T04:42:28;99445.84;;;3.58;80.96
78313;BME280;67568;47.438;21.408;2024-03-25T04:44:54;99451.00;;;3.70;80.03
78313;BME280;67568;47.438;21.408;2024-03-25T04:47:20;99464.41;;;3.81;80.19
78313;BME280;67568;47.438;21.408;2024-03-25T04:49:45;99451.53;;;3.87;79.93
78313;BME280;67568;47.438;21.408;2024-03-25T04:52:15;99454.22;;;3.92;79.52
78313;BME280;67568;47.438;21.408;2024-03-25T04:54:41;99452.56;;;3.96;79.25
78313;BME280;67568;47.438;21.408;2024-03-25T04:57:07;99447.06;;;4.01;79.02
78313;BME280;67568;47.438;21.408;2024-03-25T04:59:32;99467.31;;;4.11;78.35
78313;BME280;67568;47.438;21.408;2024-03-25T05:01:58;99451.34;;;4.18;78.60
78313;BME280;67568;47.438;21.408;2024-03-25T05:04:24;99460.69;;;4.22;78.04
78313;BME280;67568;47.438;21.408;2024-03-25T05:06:50;99455.06;;;4.42;77.13
78313;BME280;67568;47.438;21.408;2024-03-25T05:09:15;99458.22;;;4.65;76.36
78313;BME280;67568;47.438;21.408;2024-03-25T05:11:41;99457.53;;;4.83;75.14
78313;BME280;67568;47.438;21.408;2024-03-25T05:14:07;99465.31;;;5.05;74.26
78313;BME280;67568;47.438;21.408;2024-03-25T05:16:33;99468.44;;;5.23;74.35
78313;BME280;67568;47.438;21.408;2024-03-25T05:18:59;99469.16;;;5.38;73.44
78313;BME280;67568;47.438;21.408;2024-03-25T05:21:25;99468.13;;;5.58;72.23
78313;BME280;67568;47.438;21.408;2024-03-25T05:23:50;99470.56;;;5.60;71.79
78313;BME280;67568;47.438;21.408;2024-03-25T05:26:16;99466.72;;;5.85;70.25
78313;BME280;67568;47.438;21.408;2024-03-25T05:28:42;99463.00;;;6.00;70.16
78313;BME280;67568;47.438;21.408;2024-03-25T05:31:08;99462.00;;;6.34;69.10
78313;BME280;67568;47.438;21.408;2024-03-25T05:33:34;99465.47;;;6.63;69.01
78313;BME280;67568;47.438;21.408;2024-03-25T05:36:00;99472.94;;;6.95;67.85
78313;BME280;67568;47.438;21.408;2024-03-25T05:38:27;99476.28;;;7.25;67.70
78313;BME280;67568;47.438;21.408;2024-03-25T05:40:53;99481.88;;;7.53;65.90
78313;BME280;67568;47.438;21.408;2024-03-25T05:43:19;99492.75;;;8.04;64.51
78313;BME280;67568;47.438;21.408;2024-03-25T05:45:54;99502.75;;;8.28;63.67
78313;BME280;67568;47.438;21.408;2024-03-25T05:48:20;99508.19;;;8.47;64.00
78313;BME280;67568;47.438;21.408;2024-03-25T05:51:05;99507.41;;;8.83;62.74
78313;BME280;67568;47.438;21.408;2024-03-25T05:53:31;99505.09;;;8.98;61.97
78313;BME280;67568;47.438;21.408;2024-03-25T05:55:57;99516.06;;;9.26;60.25
78313;BME280;67568;47.438;21.408;2024-03-25T05:58:23;99521.19;;;9.41;60.31
78313;BME280;67568;47.438;21.408;2024-03-25T06:00:49;99532.34;;;9.81;58.74
78313;BME280;67568;47.438;21.408;2024-03-25T06:03:15;99528.44;;;9.82;58.91
78313;BME280;67568;47.438;21.408;2024-03-25T06:05:42;99540.31;;;10.14;58.46
78313;BME280;67568;47.438;21.408;2024-03-25T06:08:07;99527.53;;;10.35;57.69
78313;BME280;67568;47.438;21.408;2024-03-25T06:10:37;99531.19;;;10.53;57.02
78313;BME280;67568;47.438;21.408;2024-03-25T06:13:03;99534.31;;;10.69;56.88
78313;BME280;67568;47.438;21.408;2024-03-25T06:15:28;99528.34;;;10.93;56.58
78313;BME280;67568;47.438;21.408;2024-03-25T06:17:54;99536.50;;;11.24;56.10
78313;BME280;67568;47.438;21.408;2024-03-25T06:20:20;99531.25;;;11.23;55.78
78313;BME280;67568;47.438;21.408;2024-03-25T06:22:46;99536.31;;;11.30;55.95
78313;BME280;67568;47.438;21.408;2024-03-25T06:25:11;99540.72;;;11.39;56.00
78313;BME280;67568;47.438;21.408;2024-03-25T06:27:37;99539.03;;;11.73;55.23
78313;BME280;67568;47.438;21.408;2024-03-25T06:30:03;99542.19;;;12.19;54.43
78313;BME280;67568;47.438;21.408;2024-03-25T06:32:28;99549.47;;;12.32;53.58
78313;BME280;67568;47.438;21.408;2024-03-25T06:34:54;99550.50;;;12.57;53.31
78313;BME280;67568;47.438;21.408;2024-03-25T06:37:20;99549.84;;;12.90;52.70
78313;BME280;67568;47.438;21.408;2024-03-25T06:39:46;99556.69;;;13.13;51.75
78313;BME280;67568;47.438;21.408;2024-03-25T06:42:14;99556.59;;;13.31;52.49
78313;BME280;67568;47.438;21.408;2024-03-25T06:44:40;99558.00;;;13.58;50.69
78313;BME280;67568;47.438;21.408;2024-03-25T06:47:05;99565.66;;;13.61;52.08
78313;BME280;67568;47.438;21.408;2024-03-25T06:49:31;99561.22;;;13.93;49.35
78313;BME280;67568;47.438;21.408;2024-03-25T06:51:56;99568.19;;;14.57;49.39
78313;BME280;67568;47.438;21.408;2024-03-25T06:54:22;99568.56;;;14.80;46.95
78313;BME280;67568;47.438;21.408;2024-03-25T06:56:48;99569.03;;;15.22;47.08
78313;BME280;67568;47.438;21.408;2024-03-25T06:59:15;99573.56;;;15.80;46.25
78313;BME280;67568;47.438;21.408;2024-03-25T07:01:41;99572.81;;;16.11;45.43
78313;BME280;67568;47.438;21.408;2024-03-25T07:04:06;99577.50;;;16.38;45.29
78313;BME280;67568;47.438;21.408;2024-03-25T07:06:32;99584.91;;;16.47;44.65
78313;BME280;67568;47.438;21.408;2024-03-25T07:08:58;99582.03;;;16.91;43.04
78313;BME280;67568;47.438;21.408;2024-03-25T07:11:23;99586.16;;;16.81;44.38
78313;BME280;67568;47.438;21.408;2024-03-25T07:13:49;99579.22;;;17.26;43.51
78313;BME280;67568;47.438;21.408;2024-03-25T07:16:14;99593.25;;;17.84;42.27
78313;BME280;67568;47.438;21.408;2024-03-25T07:18:40;99593.59;;;18.45;40.23
78313;BME280;67568;47.438;21.408;2024-03-25T07:21:06;99591.09;;;18.62;40.02
78313;BME280;67568;47.438;21.408;2024-03-25T07:23:31;99599.66;;;18.93;40.40
78313;BME280;67568;47.438;21.408;2024-03-25T07:25:58;99602.38;;;18.20;40.68
78313;BME280;67568;47.438;21.408;2024-03-25T07:28:24;99598.94;;;18.07;39.06
78313;BME280;67568;47.438;21.408;2024-03-25T07:30:50;99597.69;;;17.85;39.19
78313;BME280;67568;47.438;21.408;2024-03-25T07:33:16;99596.81;;;17.81;38.97
78313;BME280;67568;47.438;21.408;2024-03-25T07:35:41;99597.75;;;17.89;41.29
78313;BME280;67568;47.438;21.408;2024-03-25T07:38:07;99607.72;;;18.98;39.24
78313;BME280;67568;47.438;21.408;2024-03-25T07:40:33;99604.63;;;18.80;38.04
78313;BME280;67568;47.438;21.408;2024-03-25T07:42:58;99604.09;;;19.24;38.69
78313;BME280;67568;47.438;21.408;2024-03-25T07:45:24;99602.72;;;19.41;38.26
78313;BME280;67568;47.438;21.408;2024-03-25T07:47:49;99599.28;;;19.51;37.07
78313;BME280;67568;47.438;21.408;2024-03-25T07:50:18;99611.94;;;19.11;35.28
78313;BME280;67568;47.438;21.408;2024-03-25T07:52:50;99589.69;;;19.25;36.73
78313;BME280;67568;47.438;21.408;2024-03-25T07:55:16;99605.69;;;19.21;35.98
78313;BME280;67568;47.438;21.408;2024-03-25T07:57:45;99595.06;;;19.98;36.20
78313;BME280;67568;47.438;21.408;2024-03-25T08:00:14;99595.19;;;19.75;36.76
78313;BME280;67568;47.438;21.408;2024-03-25T08:02:40;99599.25;;;18.94;35.67
78313;BME280;67568;47.438;21.408;2024-03-25T08:05:05;99589.31;;;19.57;34.37
78313;BME280;67568;47.438;21.408;2024-03-25T08:07:31;99593.06;;;20.36;34.83
78313;BME280;67568;47.438;21.408;2024-03-25T08:10:03;99600.66;;;21.31;33.12
78313;BME280;67568;47.438;21.408;2024-03-25T08:12:28;99594.03;;;21.65;33.35
78313;BME280;67568;47.438;21.408;2024-03-25T08:14:57;99590.84;;;21.07;33.48
78313;BME280;67568;47.438;21.408;2024-03-25T08:17:23;99597.59;;;20.51;34.93
78313;BME280;67568;47.438;21.408;2024-03-25T08:19:49;99592.59;;;19.93;35.23
78313;BME280;67568;47.438;21.408;2024-03-25T08:22:20;99600.47;;;20.17;34.48
78313;BME280;67568;47.438;21.408;2024-03-25T08:24:46;99601.47;;;19.65;34.71
78313;BME280;67568;47.438;21.408;2024-03-25T08:27:11;99599.91;;;19.67;35.92
78313;BME280;67568;47.438;21.408;2024-03-25T08:29:37;99596.22;;;19.33;35.46
78313;BME280;67568;47.438;21.408;2024-03-25T08:32:02;99593.09;;;20.02;34.71
78313;BME280;67568;47.438;21.408;2024-03-25T08:34:28;99601.84;;;20.72;33.89
78313;BME280;67568;47.438;21.408;2024-03-25T08:36:54;99605.41;;;21.90;32.65
78313;BME280;67568;47.438;21.408;2024-03-25T08:39:20;99599.34;;;21.84;30.59
78313;BME280;67568;47.438;21.408;2024-03-25T08:41:46;99601.00;;;21.99;30.89
78313;BME280;67568;47.438;21.408;2024-03-25T08:44:12;99610.06;;;23.09;29.77
78313;BME280;67568;47.438;21.408;2024-03-25T08:46:37;99600.31;;;22.38;30.85
78313;BME280;67568;47.438;21.408;2024-03-25T08:49:03;99602.78;;;22.54;30.89
78313;BME280;67568;47.438;21.408;2024-03-25T08:51:28;99601.38;;;20.25;32.27
78313;BME280;67568;47.438;21.408;2024-03-25T08:53:54;99596.84;;;20.54;32.42
78313;BME280;67568;47.438;21.408;2024-03-25T08:56:20;99602.59;;;20.65;31.91
78313;BME280;67568;47.438;21.408;2024-03-25T08:58:45;99600.16;;;20.22;31.78
78313;BME280;67568;47.438;21.408;2024-03-25T09:01:11;99605.03;;;21.22;31.34
78313;BME280;67568;47.438;21.408;2024-03-25T09:03:40;99607.69;;;21.63;31.13
78313;BME280;67568;47.438;21.408;2024-03-25T09:06:06;99609.06;;;23.87;27.79
78313;BME280;67568;47.438;21.408;2024-03-25T09:08:31;99611.06;;;25.12;26.64
78313;BME280;67568;47.438;21.408;2024-03-25T09:10:57;99609.75;;;24.13;26.38
78313;BME280;67568;47.438;21.408;2024-03-25T09:13:23;99604.91;;;26.55;24.60
78313;BME280;67568;47.438;21.408;2024-03-25T09:15:51;99612.72;;;27.25;23.93
78313;BME280;67568;47.438;21.408;2024-03-25T09:18:17;99606.06;;;26.84;23.82
78313;BME280;67568;47.438;21.408;2024-03-25T09:20:42;99607.50;;;28.03;23.17
78313;BME280;67568;47.438;21.408;2024-03-25T09:23:09;99608.38;;;28.00;22.28
78313;BME280;67568;47.438;21.408;2024-03-25T09:25:38;99598.34;;;27.08;24.27
78313;BME280;67568;47.438;21.408;2024-03-25T09:28:04;99597.81;;;27.80;23.66
78313;BME280;67568;47.438;21.408;2024-03-25T09:30:29;99609.00;;;29.58;22.70
78313;BME280;67568;47.438;21.408;2024-03-25T09:32:55;99611.16;;;28.23;22.46
78313;BME280;67568;47.438;21.408;2024-03-25T09:35:21;99600.69;;;27.37;20.80
78313;BME280;67568;47.438;21.408;2024-03-25T09:37:47;99605.69;;;30.69;20.28
78313;BME280;67568;47.438;21.408;2024-03-25T09:40:12;99604.47;;;30.58;18.95
78313;BME280;67568;47.438;21.408;2024-03-25T09:42:48;99596.50;;;31.48;18.03
78313;BME280;67568;47.438;21.408;2024-03-25T09:45:16;99604.69;;;32.24;17.30
78313;BME280;67568;47.438;21.408;2024-03-25T09:47:46;99595.81;;;33.12;16.96
78313;BME280;67568;47.438;21.408;2024-03-25T09:50:14;99596.09;;;32.24;16.48
78313;BME280;67568;47.438;21.408;2024-03-25T09:52:40;99586.50;;;30.57;17.52
78313;BME280;67568;47.438;21.408;2024-03-25T09:55:07;99590.41;;;31.58;16.82
78313;BME280;67568;47.438;21.408;2024-03-25T09:57:34;99593.72;;;31.22;16.89
78313;BME280;67568;47.438;21.408;2024-03-25T10:00:00;99594.41;;;30.40;18.41
78313;BME280;67568;47.438;21.408;2024-03-25T10:02:28;99596.94;;;32.03;17.21
78313;BME280;67568;47.438;21.408;2024-03-25T10:04:54;99593.81;;;31.31;17.56
78313;BME280;67568;47.438;21.408;2024-03-25T10:07:24;99579.16;;;28.16;21.01
78313;BME280;67568;47.438;21.408;2024-03-25T10:09:50;99583.75;;;29.28;19.88
78313;BME280;67568;47.438;21.408;2024-03-25T10:12:17;99581.66;;;27.10;22.24
78313;BME280;67568;47.438;21.408;2024-03-25T10:14:43;99571.25;;;28.23;21.29
78313;BME280;67568;47.438;21.408;2024-03-25T10:17:09;99581.91;;;29.67;20.53
78313;BME280;67568;47.438;21.408;2024-03-25T10:19:36;99588.63;;;27.29;22.32
78313;BME280;67568;47.438;21.408;2024-03-25T10:22:05;99577.66;;;25.69;24.46
78313;BME280;67568;47.438;21.408;2024-03-25T10:24:43;99573.72;;;22.79;26.70
78313;BME280;67568;47.438;21.408;2024-03-25T10:27:22;99582.59;;;25.95;24.21
78313;BME280;67568;47.438;21.408;2024-03-25T10:29:52;99574.69;;;25.45;24.62
78313;BME280;67568;47.438;21.408;2024-03-25T10:32:17;99575.69;;;23.35;26.13
78313;BME280;67568;47.438;21.408;2024-03-25T10:34:43;99578.97;;;22.66;27.00
78313;BME280;67568;47.438;21.408;2024-03-25T10:37:11;99578.91;;;23.38;26.87
78313;BME280;67568;47.438;21.408;2024-03-25T10:39:43;99572.34;;;23.76;27.12
78313;BME280;67568;47.438;21.408;2024-03-25T10:42:13;99567.56;;;24.36;26.54
78313;BME280;67568;47.438;21.408;2024-03-25T10:44:43;99577.19;;;26.86;23.57
78313;BME280;67568;47.438;21.408;2024-03-25T10:47:09;99579.53;;;28.34;21.48
78313;BME280;67568;47.438;21.408;2024-03-25T10:49:56;99584.78;;;28.19;22.16
78313;BME280;67568;47.438;21.408;2024-03-25T10:52:24;99573.38;;;26.45;23.32
78313;BME280;67568;47.438;21.408;2024-03-25T10:54:50;99576.88;;;26.80;23.22
78313;BME280;67568;47.438;21.408;2024-03-25T10:57:16;99582.53;;;26.84;22.05
78313;BME280;67568;47.438;21.408;2024-03-25T10:59:45;99579.47;;;26.44;23.31
78313;BME280;67568;47.438;21.408;2024-03-25T11:02:11;99558.75;;;26.47;21.49
78313;BME280;67568;47.438;21.408;2024-03-25T11:04:38;99555.03;;;23.42;26.70
78313;BME280;67568;47.438;21.408;2024-03-25T11:07:11;99561.78;;;21.55;27.93
78313;BME280;67568;47.438;21.408;2024-03-25T11:09:41;99552.84;;;20.80;29.68
78313;BME280;67568;47.438;21.408;2024-03-25T11:12:11;99566.03;;;22.22;28.66
78313;BME280;67568;47.438;21.408;2024-03-25T11:14:38;99573.25;;;23.41;26.77
78313;BME280;67568;47.438;21.408;2024-03-25T11:17:17;99560.88;;;25.09;24.79
78313;BME280;67568;47.438;21.408;2024-03-25T11:19:46;99566.41;;;25.62;22.48
78313;BME280;67568;47.438;21.408;2024-03-25T11:22:11;99560.75;;;23.28;25.79
78313;BME280;67568;47.438;21.408;2024-03-25T11:24:37;99560.50;;;25.07;23.75
78313;BME280;67568;47.438;21.408;2024-03-25T11:27:09;99563.00;;;25.40;24.04
78313;BME280;67568;47.438;21.408;2024-03-25T11:29:35;99565.34;;;26.91;22.60
78313;BME280;67568;47.438;21.408;2024-03-25T11:32:05;99557.47;;;23.51;25.62
78313;BME280;67568;47.438;21.408;2024-03-25T11:34:31;99548.44;;;21.48;26.81
78313;BME280;67568;47.438;21.408;2024-03-25T11:36:57;99540.09;;;21.00;27.68
78313;BME280;67568;47.438;21.408;2024-03-25T11:39:29;99543.75;;;20.08;29.82
78313;BME280;67568;47.438;21.408;2024-03-25T11:41:57;99544.00;;;20.78;30.26
78313;BME280;67568;47.438;21.408;2024-03-25T11:44:28;99527.94;;;20.37;30.95
78313;BME280;67568;47.438;21.408;2024-03-25T11:46:54;99536.19;;;20.16;30.92
78313;BME280;67568;47.438;21.408;2024-03-25T11:49:22;99521.97;;;19.64;31.22
78313;BME280;67568;47.438;21.408;2024-03-25T11:51:51;99525.78;;;18.88;32.49
78313;BME280;67568;47.438;21.408;2024-03-25T11:54:17;99530.06;;;18.56;32.05
78313;BME280;67568;47.438;21.408;2024-03-25T11:56:43;99522.28;;;18.72;33.29
78313;BME280;67568;47.438;21.408;2024-03-25T11:59:09;99527.34;;;18.13;33.76
78313;BME280;67568;47.438;21.408;2024-03-25T12:01:35;99528.47;;;18.32;33.32
78313;BME280;67568;47.438;21.408;2024-03-25T12:04:17;99518.25;;;17.97;34.57
78313;BME280;67568;47.438;21.408;2024-03-25T12:06:44;99533.44;;;17.76;31.89
78313;BME280;67568;47.438;21.408;2024-03-25T12:09:12;99527.41;;;17.55;33.43
78313;BME280;67568;47.438;21.408;2024-03-25T12:11:38;99527.75;;;17.73;34.31
78313;BME280;67568;47.438;21.408;2024-03-25T12:14:05;99517.91;;;17.60;34.88
78313;BME280;67568;47.438;21.408;2024-03-25T12:16:31;99518.94;;;17.90;33.99
78313;BME280;67568;47.438;21.408;2024-03-25T12:18:57;99510.38;;;17.05;35.45
78313;BME280;67568;47.438;21.408;2024-03-25T12:21:22;99517.22;;;17.27;33.50
78313;BME280;67568;47.438;21.408;2024-03-25T12:23:48;99509.94;;;17.03;34.11
78313;BME280;67568;47.438;21.408;2024-03-25T12:26:16;99505.56;;;16.86;34.96
78313;BME280;67568;47.438;21.408;2024-03-25T12:28:42;99507.00;;;16.96;36.07
78313;BME280;67568;47.438;21.408;2024-03-25T12:31:10;99509.19;;;16.55;35.41
78313;BME280;67568;47.438;21.408;2024-03-25T12:33:43;99497.94;;;16.52;35.99
78313;BME280;67568;47.438;21.408;2024-03-25T12:36:08;99497.59;;;16.37;34.89
78313;BME280;67568;47.438;21.408;2024-03-25T12:38:55;99494.53;;;16.27;33.65
78313;BME280;67568;47.438;21.408;2024-03-25T12:41:22;99497.06;;;16.32;35.62
78313;BME280;67568;47.438;21.408;2024-03-25T12:43:52;99492.66;;;16.15;36.05
78313;BME280;67568;47.438;21.408;2024-03-25T12:46:18;99496.53;;;16.26;34.94
78313;BME280;67568;47.438;21.408;2024-03-25T12:48:43;99488.06;;;16.23;34.56
78313;BME280;67568;47.438;21.408;2024-03-25T12:51:15;99485.88;;;16.00;34.83
78313;BME280;67568;47.438;21.408;2024-03-25T12:53:41;99484.78;;;16.36;34.94